sensor_id;sensor_type;location;lat;lon;timestamp;P1;durP1;ratioP1;P2;durP2;ratioP2
3133;SDS011;1577;49.912;10.924;2023-05-16T00:00:07;8.70;;;7.63;;
3133;SDS011;1577;49.912;10.924;2023-05-16T00:02:34;9.73;;;7.60;;
3133;SDS011;1577;49.912;10.924;2023-05-16T00:05:01;11.57;;;7.77;;
3133;SDS011;1577;49.912;10.924;2023-05-16T00:07:28;12.27;;;8.10;;
3133;SDS011;1577;49.912;10.924;2023-05-16T00:09:54;10.13;;;7.40;;
3133;SDS011;1577;49.912;10.924;2023-05-16T00:12:20;8.43;;;7.13;;
3133;SDS011;1577;49.912;10.924;2023-05-16T00:14:46;15.80;;;7.90;;
3133;SDS011;1577;49.912;10.924;2023-05-16T00:17:12;10.17;;;8.30;;
3133;SDS011;1577;49.912;10.924;2023-05-16T00:19:38;9.73;;;7.47;;
3133;SDS011;1577;49.912;10.924;2023-05-16T00:22:04;9.97;;;7.90;;
3133;SDS011;1577;49.912;10.924;2023-05-16T00:24:30;10.23;;;7.63;;
3133;SDS011;1577;49.912;10.924;2023-05-16T00:26:56;9.20;;;7.20;;
3133;SDS011;1577;49.912;10.924;2023-05-16T00:29:21;9.10;;;7.50;;
3133;SDS011;1577;49.912;10.924;2023-05-16T00:31:48;10.17;;;8.60;;
3133;SDS011;1577;49.912;10.924;2023-05-16T00:34:14;12.00;;;8.80;;
3133;SDS011;1577;49.912;10.924;2023-05-16T00:36:40;11.80;;;8.90;;
3133;SDS011;1577;49.912;10.924;2023-05-16T00:39:05;13.80;;;8.90;;
3133;SDS011;1577;49.912;10.924;2023-05-16T00:41:32;11.00;;;8.47;;
3133;SDS011;1577;49.912;10.924;2023-05-16T00:43:58;10.80;;;8.30;;
3133;SDS011;1577;49.912;10.924;2023-05-16T00:46:23;13.67;;;8.37;;
3133;SDS011;1577;49.912;10.924;2023-05-16T00:48:49;11.03;;;8.70;;
3133;SDS011;1577;49.912;10.924;2023-05-16T00:51:15;10.70;;;8.33;;
3133;SDS011;1577;49.912;10.924;2023-05-16T00:53:41;11.10;;;9.13;;
3133;SDS011;1577;49.912;10.924;2023-05-16T00:56:07;14.97;;;10.40;;
3133;SDS011;1577;49.912;10.924;2023-05-16T00:58:33;15.27;;;11.37;;
3133;SDS011;1577;49.912;10.924;2023-05-16T01:01:00;14.53;;;10.30;;
3133;SDS011;1577;49.912;10.924;2023-05-16T01:03:27;13.13;;;10.37;;
3133;SDS011;1577;49.912;10.924;2023-05-16T01:05:54;18.20;;;10.30;;
3133;SDS011;1577;49.912;10.924;2023-05-16T01:08:19;14.20;;;10.50;;
3133;SDS011;1577;49.912;10.924;2023-05-16T01:11:07;14.10;;;10.23;;
3133;SDS011;1577;49.912;10.924;2023-05-16T01:13:44;13.20;;;10.70;;
3133;SDS011;1577;49.912;10.924;2023-05-16T01:19:13;13.17;;;10.60;;
3133;SDS011;1577;49.912;10.924;2023-05-16T01:22:05;14.53;;;11.17;;
3133;SDS011;1577;49.912;10.924;2023-05-16T01:27:45;15.70;;;10.77;;
3133;SDS011;1577;49.912;10.924;2023-05-16T01:30:15;11.20;;;9.57;;
3133;SDS011;1577;49.912;10.924;2023-05-16T01:32:42;13.73;;;9.77;;
3133;SDS011;1577;49.912;10.924;2023-05-16T01:35:08;12.87;;;9.60;;
3133;SDS011;1577;49.912;10.924;2023-05-16T01:37:38;15.80;;;10.50;;
3133;SDS011;1577;49.912;10.924;2023-05-16T01:40:32;12.00;;;10.23;;
3133;SDS011;1577;49.912;10.924;2023-05-16T01:43:10;19.70;;;10.70;;
3133;SDS011;1577;49.912;10.924;2023-05-16T01:45:39;12.70;;;10.50;;
3133;SDS011;1577;49.912;10.924;2023-05-16T01:48:12;13.90;;;10.30;;
3133;SDS011;1577;49.912;10.924;2023-05-16T01:50:54;13.80;;;11.30;;
3133;SDS011;1577;49.912;10.924;2023-05-16T01:53:23;13.63;;;10.13;;
3133;SDS011;1577;49.912;10.924;2023-05-16T01:55:52;12.37;;;9.90;;
3133;SDS011;1577;49.912;10.924;2023-05-16T01:58:24;14.87;;;10.43;;
3133;SDS011;1577;49.912;10.924;2023-05-16T02:00:52;12.07;;;9.77;;
3133;SDS011;1577;49.912;10.924;2023-05-16T02:03:18;12.60;;;9.50;;
3133;SDS011;1577;49.912;10.924;2023-05-16T02:05:44;13.20;;;10.10;;
3133;SDS011;1577;49.912;10.924;2023-05-16T02:08:10;13.67;;;9.30;;
3133;SDS011;1577;49.912;10.924;2023-05-16T02:10:36;11.60;;;9.60;;
3133;SDS011;1577;49.912;10.924;2023-05-16T02:13:03;11.27;;;9.40;;
3133;SDS011;1577;49.912;10.924;2023-05-16T02:15:29;11.33;;;10.07;;
3133;SDS011;1577;49.912;10.924;2023-05-16T02:17:55;13.07;;;10.20;;
3133;SDS011;1577;49.912;10.924;2023-05-16T02:20:22;12.70;;;9.47;;
3133;SDS011;1577;49.912;10.924;2023-05-16T02:22:48;13.03;;;9.33;;
3133;SDS011;1577;49.912;10.924;2023-05-16T02:25:14;15.00;;;10.23;;
3133;SDS011;1577;49.912;10.924;2023-05-16T02:27:40;13.00;;;10.10;;
3133;SDS011;1577;49.912;10.924;2023-05-16T02:30:07;13.50;;;9.47;;
3133;SDS011;1577;49.912;10.924;2023-05-16T02:32:34;14.63;;;9.80;;
3133;SDS011;1577;49.912;10.924;2023-05-16T02:35:00;11.80;;;9.73;;
3133;SDS011;1577;49.912;10.924;2023-05-16T02:37:25;15.47;;;11.00;;
3133;SDS011;1577;49.912;10.924;2023-05-16T02:39:51;17.17;;;11.10;;
3133;SDS011;1577;49.912;10.924;2023-05-16T02:42:16;17.73;;;10.93;;
3133;SDS011;1577;49.912;10.924;2023-05-16T02:44:42;15.57;;;10.90;;
3133;SDS011;1577;49.912;10.924;2023-05-16T02:47:07;14.53;;;11.40;;
3133;SDS011;1577;49.912;10.924;2023-05-16T02:49:33;17.70;;;11.43;;
3133;SDS011;1577;49.912;10.924;2023-05-16T02:51:58;13.70;;;11.17;;
3133;SDS011;1577;49.912;10.924;2023-05-16T02:54:24;13.53;;;10.70;;
3133;SDS011;1577;49.912;10.924;2023-05-16T02:56:50;14.07;;;10.07;;
3133;SDS011;1577;49.912;10.924;2023-05-16T02:59:15;12.57;;;10.10;;
3133;SDS011;1577;49.912;10.924;2023-05-16T03:01:41;13.10;;;10.10;;
3133;SDS011;1577;49.912;10.924;2023-05-16T03:04:06;15.33;;;9.97;;
3133;SDS011;1577;49.912;10.924;2023-05-16T03:06:32;15.30;;;10.10;;
3133;SDS011;1577;49.912;10.924;2023-05-16T03:08:57;11.37;;;8.90;;
3133;SDS011;1577;49.912;10.924;2023-05-16T03:11:23;14.50;;;9.40;;
3133;SDS011;1577;49.912;10.924;2023-05-16T03:13:49;12.27;;;10.00;;
3133;SDS011;1577;49.912;10.924;2023-05-16T03:16:15;12.17;;;9.97;;
3133;SDS011;1577;49.912;10.924;2023-05-16T03:18:41;13.93;;;10.37;;
3133;SDS011;1577;49.912;10.924;2023-05-16T03:21:07;13.70;;;9.87;;
3133;SDS011;1577;49.912;10.924;2023-05-16T03:23:33;13.20;;;9.67;;
3133;SDS011;1577;49.912;10.924;2023-05-16T03:25:58;13.07;;;10.93;;
3133;SDS011;1577;49.912;10.924;2023-05-16T03:28:24;12.43;;;9.53;;
3133;SDS011;1577;49.912;10.924;2023-05-16T03:30:50;11.47;;;8.80;;
3133;SDS011;1577;49.912;10.924;2023-05-16T03:33:16;10.90;;;8.33;;
3133;SDS011;1577;49.912;10.924;2023-05-16T03:35:45;12.20;;;9.50;;
3133;SDS011;1577;49.912;10.924;2023-05-16T03:38:11;11.40;;;8.20;;
3133;SDS011;1577;49.912;10.924;2023-05-16T03:40:38;11.10;;;8.60;;
3133;SDS011;1577;49.912;10.924;2023-05-16T03:43:04;9.77;;;8.23;;
3133;SDS011;1577;49.912;10.924;2023-05-16T03:45:30;9.73;;;7.80;;
3133;SDS011;1577;49.912;10.924;2023-05-16T03:47:55;12.80;;;8.20;;
3133;SDS011;1577;49.912;10.924;2023-05-16T03:50:21;10.03;;;8.33;;
3133;SDS011;1577;49.912;10.924;2023-05-16T03:52:47;11.80;;;8.57;;
3133;SDS011;1577;49.912;10.924;2023-05-16T03:55:12;11.33;;;8.97;;
3133;SDS011;1577;49.912;10.924;2023-05-16T03:57:39;10.67;;;8.00;;
3133;SDS011;1577;49.912;10.924;2023-05-16T04:00:06;11.00;;;8.40;;
3133;SDS011;1577;49.912;10.924;2023-05-16T04:02:32;10.40;;;9.30;;
3133;SDS011;1577;49.912;10.924;2023-05-16T04:04:58;17.37;;;10.00;;
3133;SDS011;1577;49.912;10.924;2023-05-16T04:07:23;10.47;;;8.70;;
3133;SDS011;1577;49.912;10.924;2023-05-16T04:09:50;16.77;;;9.23;;
3133;SDS011;1577;49.912;10.924;2023-05-16T04:12:15;13.70;;;9.80;;
3133;SDS011;1577;49.912;10.924;2023-05-16T04:14:41;9.80;;;8.60;;
3133;SDS011;1577;49.912;10.924;2023-05-16T04:17:07;15.67;;;9.63;;
3133;SDS011;1577;49.912;10.924;2023-05-16T04:19:32;11.57;;;8.70;;
3133;SDS011;1577;49.912;10.924;2023-05-16T04:21:58;11.30;;;8.10;;
3133;SDS011;1577;49.912;10.924;2023-05-16T04:24:23;9.83;;;8.20;;
3133;SDS011;1577;49.912;10.924;2023-05-16T04:26:52;12.20;;;9.40;;
3133;SDS011;1577;49.912;10.924;2023-05-16T04:29:18;11.77;;;9.17;;
3133;SDS011;1577;49.912;10.924;2023-05-16T04:31:45;11.80;;;8.40;;
3133;SDS011;1577;49.912;10.924;2023-05-16T04:34:11;9.73;;;8.43;;
3133;SDS011;1577;49.912;10.924;2023-05-16T04:36:37;11.30;;;8.73;;
3133;SDS011;1577;49.912;10.924;2023-05-16T04:39:03;9.70;;;7.70;;
3133;SDS011;1577;49.912;10.924;2023-05-16T04:41:28;10.00;;;7.97;;
3133;SDS011;1577;49.912;10.924;2023-05-16T04:43:54;12.70;;;9.40;;
3133;SDS011;1577;49.912;10.924;2023-05-16T04:46:20;9.50;;;7.97;;
3133;SDS011;1577;49.912;10.924;2023-05-16T04:48:45;10.37;;;9.27;;
3133;SDS011;1577;49.912;10.924;2023-05-16T04:51:11;12.37;;;9.07;;
3133;SDS011;1577;49.912;10.924;2023-05-16T04:53:36;11.83;;;9.67;;
3133;SDS011;1577;49.912;10.924;2023-05-16T04:56:02;10.70;;;8.50;;
3133;SDS011;1577;49.912;10.924;2023-05-16T04:58:29;10.33;;;8.47;;
3133;SDS011;1577;49.912;10.924;2023-05-16T05:00:55;12.70;;;8.00;;
3133;SDS011;1577;49.912;10.924;2023-05-16T05:03:21;10.83;;;8.40;;
3133;SDS011;1577;49.912;10.924;2023-05-16T05:05:47;14.23;;;9.50;;
3133;SDS011;1577;49.912;10.924;2023-05-16T05:08:13;10.83;;;8.80;;
3133;SDS011;1577;49.912;10.924;2023-05-16T05:10:39;12.20;;;9.50;;
3133;SDS011;1577;49.912;10.924;2023-05-16T05:13:04;9.50;;;7.70;;
3133;SDS011;1577;49.912;10.924;2023-05-16T05:15:30;10.57;;;9.07;;
3133;SDS011;1577;49.912;10.924;2023-05-16T05:17:56;11.00;;;8.07;;
3133;SDS011;1577;49.912;10.924;2023-05-16T05:20:21;10.40;;;8.53;;
3133;SDS011;1577;49.912;10.924;2023-05-16T05:22:47;9.73;;;8.27;;
3133;SDS011;1577;49.912;10.924;2023-05-16T05:25:13;10.87;;;8.10;;
3133;SDS011;1577;49.912;10.924;2023-05-16T05:27:39;11.03;;;7.90;;
3133;SDS011;1577;49.912;10.924;2023-05-16T05:30:05;11.13;;;8.67;;
3133;SDS011;1577;49.912;10.924;2023-05-16T05:32:31;10.70;;;7.80;;
3133;SDS011;1577;49.912;10.924;2023-05-16T05:34:56;8.80;;;7.50;;
3133;SDS011;1577;49.912;10.924;2023-05-16T05:37:22;11.50;;;8.20;;
3133;SDS011;1577;49.912;10.924;2023-05-16T05:39:48;10.43;;;7.60;;
3133;SDS011;1577;49.912;10.924;2023-05-16T05:42:13;11.07;;;7.87;;
3133;SDS011;1577;49.912;10.924;2023-05-16T05:44:39;16.40;;;8.30;;
3133;SDS011;1577;49.912;10.924;2023-05-16T05:47:04;10.40;;;7.87;;
3133;SDS011;1577;49.912;10.924;2023-05-16T05:49:30;10.83;;;7.40;;
3133;SDS011;1577;49.912;10.924;2023-05-16T05:51:57;11.80;;;8.93;;
3133;SDS011;1577;49.912;10.924;2023-05-16T05:54:22;12.83;;;8.87;;
3133;SDS011;1577;49.912;10.924;2023-05-16T05:56:48;10.40;;;8.50;;
3133;SDS011;1577;49.912;10.924;2023-05-16T05:59:14;13.00;;;8.43;;
3133;SDS011;1577;49.912;10.924;2023-05-16T06:01:40;13.27;;;8.23;;
3133;SDS011;1577;49.912;10.924;2023-05-16T06:04:06;9.73;;;7.83;;
3133;SDS011;1577;49.912;10.924;2023-05-16T06:06:31;8.90;;;7.83;;
3133;SDS011;1577;49.912;10.924;2023-05-16T06:08:57;10.97;;;7.97;;
3133;SDS011;1577;49.912;10.924;2023-05-16T06:11:23;11.83;;;8.73;;
3133;SDS011;1577;49.912;10.924;2023-05-16T06:13:49;10.63;;;8.93;;
3133;SDS011;1577;49.912;10.924;2023-05-16T06:16:18;13.73;;;9.03;;
3133;SDS011;1577;49.912;10.924;2023-05-16T06:18:43;13.20;;;9.67;;
3133;SDS011;1577;49.912;10.924;2023-05-16T06:21:09;13.87;;;9.83;;
3133;SDS011;1577;49.912;10.924;2023-05-16T06:23:35;12.80;;;9.20;;
3133;SDS011;1577;49.912;10.924;2023-05-16T06:26:01;13.20;;;8.73;;
3133;SDS011;1577;49.912;10.924;2023-05-16T06:28:27;10.50;;;8.97;;
3133;SDS011;1577;49.912;10.924;2023-05-16T06:30:53;11.80;;;9.50;;
3133;SDS011;1577;49.912;10.924;2023-05-16T06:33:19;14.97;;;8.80;;
3133;SDS011;1577;49.912;10.924;2023-05-16T06:35:45;10.83;;;8.57;;
3133;SDS011;1577;49.912;10.924;2023-05-16T06:38:12;10.50;;;8.20;;
3133;SDS011;1577;49.912;10.924;2023-05-16T06:40:38;10.53;;;8.70;;
3133;SDS011;1577;49.912;10.924;2023-05-16T06:43:04;11.20;;;8.90;;
3133;SDS011;1577;49.912;10.924;2023-05-16T06:45:30;11.37;;;8.80;;
3133;SDS011;1577;49.912;10.924;2023-05-16T06:47:56;12.37;;;8.77;;
3133;SDS011;1577;49.912;10.924;2023-05-16T06:50:21;11.23;;;8.47;;
3133;SDS011;1577;49.912;10.924;2023-05-16T06:52:47;15.87;;;10.73;;
3133;SDS011;1577;49.912;10.924;2023-05-16T06:55:13;14.40;;;9.13;;
3133;SDS011;1577;49.912;10.924;2023-05-16T06:57:39;11.30;;;8.77;;
3133;SDS011;1577;49.912;10.924;2023-05-16T07:00:05;11.63;;;8.30;;
3133;SDS011;1577;49.912;10.924;2023-05-16T07:02:31;12.73;;;8.50;;
3133;SDS011;1577;49.912;10.924;2023-05-16T07:04:56;13.20;;;9.10;;
3133;SDS011;1577;49.912;10.924;2023-05-16T07:07:22;14.33;;;9.00;;
3133;SDS011;1577;49.912;10.924;2023-05-16T07:09:47;12.90;;;9.20;;
3133;SDS011;1577;49.912;10.924;2023-05-16T07:12:13;13.00;;;8.73;;
3133;SDS011;1577;49.912;10.924;2023-05-16T07:14:38;13.67;;;9.00;;
3133;SDS011;1577;49.912;10.924;2023-05-16T07:17:04;10.80;;;9.30;;
3133;SDS011;1577;49.912;10.924;2023-05-16T07:19:30;11.67;;;8.30;;
3133;SDS011;1577;49.912;10.924;2023-05-16T07:21:56;9.90;;;8.50;;
3133;SDS011;1577;49.912;10.924;2023-05-16T07:24:21;14.67;;;10.53;;
3133;SDS011;1577;49.912;10.924;2023-05-16T07:26:47;12.77;;;9.00;;
3133;SDS011;1577;49.912;10.924;2023-05-16T07:29:12;12.00;;;9.03;;
3133;SDS011;1577;49.912;10.924;2023-05-16T07:31:38;11.73;;;9.17;;
3133;SDS011;1577;49.912;10.924;2023-05-16T07:34:04;10.47;;;8.80;;
3133;SDS011;1577;49.912;10.924;2023-05-16T07:36:30;13.30;;;8.93;;
3133;SDS011;1577;49.912;10.924;2023-05-16T07:38:56;11.77;;;9.00;;
3133;SDS011;1577;49.912;10.924;2023-05-16T07:41:21;14.63;;;8.30;;
3133;SDS011;1577;49.912;10.924;2023-05-16T07:43:47;10.97;;;8.57;;
3133;SDS011;1577;49.912;10.924;2023-05-16T07:46:12;13.30;;;9.30;;
3133;SDS011;1577;49.912;10.924;2023-05-16T07:48:38;9.37;;;8.33;;
3133;SDS011;1577;49.912;10.924;2023-05-16T07:51:04;11.30;;;8.33;;
3133;SDS011;1577;49.912;10.924;2023-05-16T07:53:29;12.73;;;7.70;;
3133;SDS011;1577;49.912;10.924;2023-05-16T07:55:55;10.93;;;8.30;;
3133;SDS011;1577;49.912;10.924;2023-05-16T07:58:21;9.73;;;7.47;;
3133;SDS011;1577;49.912;10.924;2023-05-16T08:00:46;13.43;;;7.40;;
3133;SDS011;1577;49.912;10.924;2023-05-16T08:03:12;9.63;;;8.00;;
3133;SDS011;1577;49.912;10.924;2023-05-16T08:05:37;12.00;;;7.53;;
3133;SDS011;1577;49.912;10.924;2023-05-16T08:08:03;9.73;;;6.80;;
3133;SDS011;1577;49.912;10.924;2023-05-16T08:10:30;14.30;;;8.00;;
3133;SDS011;1577;49.912;10.924;2023-05-16T08:12:55;10.27;;;6.87;;
3133;SDS011;1577;49.912;10.924;2023-05-16T08:15:21;11.27;;;7.97;;
3133;SDS011;1577;49.912;10.924;2023-05-16T08:17:46;9.37;;;7.70;;
3133;SDS011;1577;49.912;10.924;2023-05-16T08:20:12;9.17;;;6.77;;
3133;SDS011;1577;49.912;10.924;2023-05-16T08:22:37;10.33;;;7.20;;
3133;SDS011;1577;49.912;10.924;2023-05-16T08:25:03;9.77;;;7.73;;
3133;SDS011;1577;49.912;10.924;2023-05-16T08:27:29;9.40;;;6.93;;
3133;SDS011;1577;49.912;10.924;2023-05-16T08:29:55;8.40;;;7.50;;
3133;SDS011;1577;49.912;10.924;2023-05-16T08:32:21;10.57;;;7.10;;
3133;SDS011;1577;49.912;10.924;2023-05-16T08:34:47;8.70;;;6.23;;
3133;SDS011;1577;49.912;10.924;2023-05-16T08:37:12;10.30;;;5.73;;
3133;SDS011;1577;49.912;10.924;2023-05-16T08:39:38;7.23;;;5.83;;
3133;SDS011;1577;49.912;10.924;2023-05-16T08:42:04;6.20;;;5.13;;
3133;SDS011;1577;49.912;10.924;2023-05-16T08:44:30;9.20;;;5.13;;
3133;SDS011;1577;49.912;10.924;2023-05-16T08:46:55;5.93;;;5.27;;
3133;SDS011;1577;49.912;10.924;2023-05-16T08:49:21;6.63;;;4.83;;
3133;SDS011;1577;49.912;10.924;2023-05-16T08:51:50;6.23;;;4.83;;
3133;SDS011;1577;49.912;10.924;2023-05-16T08:54:18;6.17;;;4.53;;
3133;SDS011;1577;49.912;10.924;2023-05-16T08:56:44;6.30;;;4.90;;
3133;SDS011;1577;49.912;10.924;2023-05-16T08:59:10;6.73;;;4.30;;
3133;SDS011;1577;49.912;10.924;2023-05-16T09:01:36;6.40;;;4.50;;
3133;SDS011;1577;49.912;10.924;2023-05-16T09:04:02;6.30;;;4.33;;
3133;SDS011;1577;49.912;10.924;2023-05-16T09:06:29;6.93;;;3.30;;
3133;SDS011;1577;49.912;10.924;2023-05-16T09:08:55;6.30;;;3.70;;
3133;SDS011;1577;49.912;10.924;2023-05-16T09:11:23;4.93;;;3.70;;
3133;SDS011;1577;49.912;10.924;2023-05-16T09:13:49;4.60;;;3.50;;
3133;SDS011;1577;49.912;10.924;2023-05-16T09:16:18;4.83;;;3.57;;
3133;SDS011;1577;49.912;10.924;2023-05-16T09:18:45;5.97;;;4.13;;
3133;SDS011;1577;49.912;10.924;2023-05-16T09:21:22;6.20;;;4.07;;
3133;SDS011;1577;49.912;10.924;2023-05-16T09:23:52;5.77;;;4.03;;
3133;SDS011;1577;49.912;10.924;2023-05-16T09:26:18;5.23;;;3.93;;
3133;SDS011;1577;49.912;10.924;2023-05-16T09:28:43;4.00;;;3.23;;
3133;SDS011;1577;49.912;10.924;2023-05-16T09:31:22;5.00;;;4.23;;
3133;SDS011;1577;49.912;10.924;2023-05-16T09:33:52;6.60;;;4.20;;
3133;SDS011;1577;49.912;10.924;2023-05-16T09:36:20;5.73;;;4.17;;
3133;SDS011;1577;49.912;10.924;2023-05-16T09:38:46;6.30;;;4.20;;
3133;SDS011;1577;49.912;10.924;2023-05-16T09:41:11;5.97;;;3.57;;
3133;SDS011;1577;49.912;10.924;2023-05-16T09:43:38;5.90;;;3.90;;
3133;SDS011;1577;49.912;10.924;2023-05-16T09:46:15;5.93;;;3.60;;
3133;SDS011;1577;49.912;10.924;2023-05-16T09:48:43;7.47;;;4.97;;
3133;SDS011;1577;49.912;10.924;2023-05-16T09:51:10;4.50;;;3.37;;
3133;SDS011;1577;49.912;10.924;2023-05-16T09:53:37;6.43;;;4.43;;
3133;SDS011;1577;49.912;10.924;2023-05-16T09:56:09;11.23;;;4.47;;
3133;SDS011;1577;49.912;10.924;2023-05-16T09:58:36;5.80;;;3.80;;
3133;SDS011;1577;49.912;10.924;2023-05-16T10:01:03;6.40;;;4.00;;
3133;SDS011;1577;49.912;10.924;2023-05-16T10:03:29;5.03;;;4.10;;
3133;SDS011;1577;49.912;10.924;2023-05-16T10:05:56;4.10;;;3.60;;
3133;SDS011;1577;49.912;10.924;2023-05-16T10:08:23;8.17;;;4.13;;
3133;SDS011;1577;49.912;10.924;2023-05-16T10:10:53;6.80;;;4.40;;
3133;SDS011;1577;49.912;10.924;2023-05-16T10:13:20;6.70;;;4.60;;
3133;SDS011;1577;49.912;10.924;2023-05-16T10:15:57;6.27;;;4.30;;
3133;SDS011;1577;49.912;10.924;2023-05-16T10:18:28;7.83;;;4.73;;
3133;SDS011;1577;49.912;10.924;2023-05-16T10:20:56;7.50;;;4.40;;
3133;SDS011;1577;49.912;10.924;2023-05-16T10:23:26;5.13;;;4.10;;
3133;SDS011;1577;49.912;10.924;2023-05-16T10:25:52;7.67;;;4.10;;
3133;SDS011;1577;49.912;10.924;2023-05-16T10:28:21;6.43;;;3.67;;
3133;SDS011;1577;49.912;10.924;2023-05-16T10:30:48;5.53;;;3.80;;
3133;SDS011;1577;49.912;10.924;2023-05-16T10:33:16;6.57;;;4.20;;
3133;SDS011;1577;49.912;10.924;2023-05-16T10:35:50;8.17;;;4.10;;
3133;SDS011;1577;49.912;10.924;2023-05-16T10:38:16;5.83;;;3.57;;
3133;SDS011;1577;49.912;10.924;2023-05-16T10:40:43;6.27;;;4.00;;
3133;SDS011;1577;49.912;10.924;2023-05-16T10:43:12;4.97;;;3.80;;
3133;SDS011;1577;49.912;10.924;2023-05-16T10:45:55;5.87;;;3.87;;
3133;SDS011;1577;49.912;10.924;2023-05-16T10:48:32;6.27;;;3.77;;
3133;SDS011;1577;49.912;10.924;2023-05-16T10:50:59;6.17;;;4.30;;
3133;SDS011;1577;49.912;10.924;2023-05-16T10:53:34;6.97;;;3.60;;
3133;SDS011;1577;49.912;10.924;2023-05-16T11:04:09;5.50;;;3.47;;
3133;SDS011;1577;49.912;10.924;2023-05-16T11:14:23;4.40;;;3.00;;
3133;SDS011;1577;49.912;10.924;2023-05-16T11:17:08;3.80;;;2.70;;
3133;SDS011;1577;49.912;10.924;2023-05-16T11:22:31;4.13;;;2.60;;
3133;SDS011;1577;49.912;10.924;2023-05-16T11:25:04;4.67;;;3.17;;
3133;SDS011;1577;49.912;10.924;2023-05-16T11:27:32;3.50;;;2.53;;
3133;SDS011;1577;49.912;10.924;2023-05-16T11:32:34;3.63;;;2.57;;
3133;SDS011;1577;49.912;10.924;2023-05-16T11:35:06;4.10;;;2.70;;
3133;SDS011;1577;49.912;10.924;2023-05-16T11:37:33;5.50;;;3.17;;
3133;SDS011;1577;49.912;10.924;2023-05-16T11:40:05;3.90;;;2.60;;
3133;SDS011;1577;49.912;10.924;2023-05-16T11:42:34;4.57;;;3.37;;
3133;SDS011;1577;49.912;10.924;2023-05-16T11:45:04;3.40;;;2.40;;
3133;SDS011;1577;49.912;10.924;2023-05-16T11:47:30;4.40;;;2.90;;
3133;SDS011;1577;49.912;10.924;2023-05-16T11:49:59;5.47;;;3.20;;
3133;SDS011;1577;49.912;10.924;2023-05-16T11:52:24;4.87;;;2.93;;
3133;SDS011;1577;49.912;10.924;2023-05-16T11:54:51;3.70;;;2.60;;
3133;SDS011;1577;49.912;10.924;2023-05-16T11:57:17;4.50;;;3.13;;
3133;SDS011;1577;49.912;10.924;2023-05-16T11:59:45;5.10;;;3.00;;
3133;SDS011;1577;49.912;10.924;2023-05-16T12:02:11;5.77;;;2.63;;
3133;SDS011;1577;49.912;10.924;2023-05-16T12:04:36;3.80;;;2.43;;
3133;SDS011;1577;49.912;10.924;2023-05-16T12:07:02;3.50;;;2.70;;
3133;SDS011;1577;49.912;10.924;2023-05-16T12:09:29;2.80;;;2.10;;
3133;SDS011;1577;49.912;10.924;2023-05-16T12:11:55;3.60;;;2.80;;
3133;SDS011;1577;49.912;10.924;2023-05-16T12:14:20;3.77;;;2.47;;
3133;SDS011;1577;49.912;10.924;2023-05-16T12:16:46;3.70;;;2.37;;
3133;SDS011;1577;49.912;10.924;2023-05-16T12:19:13;4.47;;;2.67;;
3133;SDS011;1577;49.912;10.924;2023-05-16T12:21:39;2.73;;;1.90;;
3133;SDS011;1577;49.912;10.924;2023-05-16T12:24:08;4.50;;;2.10;;
3133;SDS011;1577;49.912;10.924;2023-05-16T12:26:37;3.77;;;2.40;;
3133;SDS011;1577;49.912;10.924;2023-05-16T12:29:04;3.00;;;1.90;;
3133;SDS011;1577;49.912;10.924;2023-05-16T12:31:36;4.53;;;2.53;;
3133;SDS011;1577;49.912;10.924;2023-05-16T12:34:04;2.53;;;1.93;;
3133;SDS011;1577;49.912;10.924;2023-05-16T12:36:38;3.13;;;2.20;;
3133;SDS011;1577;49.912;10.924;2023-05-16T12:39:04;2.63;;;2.00;;
3133;SDS011;1577;49.912;10.924;2023-05-16T12:41:30;5.27;;;2.20;;
3133;SDS011;1577;49.912;10.924;2023-05-16T12:44:05;2.80;;;2.00;;
3133;SDS011;1577;49.912;10.924;2023-05-16T12:46:39;3.03;;;1.70;;
3133;SDS011;1577;49.912;10.924;2023-05-16T12:49:06;2.30;;;1.60;;
3133;SDS011;1577;49.912;10.924;2023-05-16T12:51:32;3.70;;;2.20;;
3133;SDS011;1577;49.912;10.924;2023-05-16T12:54:05;3.13;;;1.93;;
3133;SDS011;1577;49.912;10.924;2023-05-16T12:56:36;2.63;;;1.50;;
3133;SDS011;1577;49.912;10.924;2023-05-16T12:59:02;2.53;;;1.80;;
3133;SDS011;1577;49.912;10.924;2023-05-16T13:01:28;4.00;;;1.73;;
3133;SDS011;1577;49.912;10.924;2023-05-16T13:03:54;4.90;;;1.60;;
3133;SDS011;1577;49.912;10.924;2023-05-16T13:06:19;2.27;;;1.33;;
3133;SDS011;1577;49.912;10.924;2023-05-16T13:08:45;1.73;;;1.40;;
3133;SDS011;1577;49.912;10.924;2023-05-16T13:11:11;5.30;;;1.60;;
3133;SDS011;1577;49.912;10.924;2023-05-16T13:13:36;7.20;;;1.80;;
3133;SDS011;1577;49.912;10.924;2023-05-16T13:16:02;2.73;;;1.30;;
3133;SDS011;1577;49.912;10.924;2023-05-16T13:18:28;1.90;;;1.17;;
3133;SDS011;1577;49.912;10.924;2023-05-16T13:20:53;2.80;;;1.50;;
3133;SDS011;1577;49.912;10.924;2023-05-16T13:23:19;2.80;;;1.30;;
3133;SDS011;1577;49.912;10.924;2023-05-16T13:25:48;2.30;;;1.33;;
3133;SDS011;1577;49.912;10.924;2023-05-16T13:28:14;2.53;;;1.50;;
3133;SDS011;1577;49.912;10.924;2023-05-16T13:30:39;3.23;;;1.50;;
3133;SDS011;1577;49.912;10.924;2023-05-16T13:33:05;2.50;;;1.80;;
3133;SDS011;1577;49.912;10.924;2023-05-16T13:35:31;3.67;;;2.00;;
3133;SDS011;1577;49.912;10.924;2023-05-16T13:37:56;2.73;;;1.30;;
3133;SDS011;1577;49.912;10.924;2023-05-16T13:40:22;2.43;;;1.50;;
3133;SDS011;1577;49.912;10.924;2023-05-16T13:42:48;4.70;;;1.20;;
3133;SDS011;1577;49.912;10.924;2023-05-16T13:45:14;2.20;;;1.33;;
3133;SDS011;1577;49.912;10.924;2023-05-16T13:47:39;2.17;;;1.20;;
3133;SDS011;1577;49.912;10.924;2023-05-16T13:50:05;3.50;;;1.30;;
3133;SDS011;1577;49.912;10.924;2023-05-16T13:52:34;4.03;;;1.20;;
3133;SDS011;1577;49.912;10.924;2023-05-16T13:55:03;1.70;;;1.03;;
3133;SDS011;1577;49.912;10.924;2023-05-16T13:57:29;1.73;;;1.60;;
3133;SDS011;1577;49.912;10.924;2023-05-16T13:59:55;2.83;;;1.10;;
3133;SDS011;1577;49.912;10.924;2023-05-16T14:02:21;3.33;;;2.07;;
3133;SDS011;1577;49.912;10.924;2023-05-16T14:04:48;1.77;;;1.53;;
3133;SDS011;1577;49.912;10.924;2023-05-16T14:07:14;2.27;;;1.20;;
3133;SDS011;1577;49.912;10.924;2023-05-16T14:09:40;1.73;;;1.20;;
3133;SDS011;1577;49.912;10.924;2023-05-16T14:12:06;2.87;;;1.20;;
3133;SDS011;1577;49.912;10.924;2023-05-16T14:14:32;2.70;;;1.40;;
3133;SDS011;1577;49.912;10.924;2023-05-16T14:16:58;2.43;;;1.30;;
3133;SDS011;1577;49.912;10.924;2023-05-16T14:19:24;1.50;;;1.13;;
3133;SDS011;1577;49.912;10.924;2023-05-16T14:21:52;1.90;;;1.30;;
3133;SDS011;1577;49.912;10.924;2023-05-16T14:24:18;2.83;;;1.63;;
3133;SDS011;1577;49.912;10.924;2023-05-16T14:26:44;7.23;;;1.90;;
3133;SDS011;1577;49.912;10.924;2023-05-16T14:29:10;4.07;;;1.73;;
3133;SDS011;1577;49.912;10.924;2023-05-16T14:31:36;2.33;;;1.50;;
3133;SDS011;1577;49.912;10.924;2023-05-16T14:34:01;2.40;;;1.70;;
3133;SDS011;1577;49.912;10.924;2023-05-16T14:36:28;2.97;;;1.60;;
3133;SDS011;1577;49.912;10.924;2023-05-16T14:38:53;3.87;;;1.60;;
3133;SDS011;1577;49.912;10.924;2023-05-16T14:41:19;2.60;;;1.73;;
3133;SDS011;1577;49.912;10.924;2023-05-16T14:43:45;2.43;;;1.47;;
3133;SDS011;1577;49.912;10.924;2023-05-16T14:46:10;6.73;;;2.80;;
3133;SDS011;1577;49.912;10.924;2023-05-16T14:48:36;2.90;;;1.83;;
3133;SDS011;1577;49.912;10.924;2023-05-16T14:51:02;2.90;;;1.70;;
3133;SDS011;1577;49.912;10.924;2023-05-16T14:53:28;4.10;;;1.70;;
3133;SDS011;1577;49.912;10.924;2023-05-16T14:55:54;5.40;;;1.60;;
3133;SDS011;1577;49.912;10.924;2023-05-16T14:58:20;4.77;;;2.97;;
3133;SDS011;1577;49.912;10.924;2023-05-16T15:00:46;3.87;;;2.63;;
3133;SDS011;1577;49.912;10.924;2023-05-16T15:03:11;5.60;;;1.90;;
3133;SDS011;1577;49.912;10.924;2023-05-16T15:05:37;4.22;;;2.30;;
3133;SDS011;1577;49.912;10.924;2023-05-16T15:08:03;3.70;;;1.67;;
3133;SDS011;1577;49.912;10.924;2023-05-16T15:10:28;7.67;;;4.27;;
3133;SDS011;1577;49.912;10.924;2023-05-16T15:12:54;4.37;;;1.57;;
3133;SDS011;1577;49.912;10.924;2023-05-16T15:15:20;4.20;;;2.03;;
3133;SDS011;1577;49.912;10.924;2023-05-16T15:17:45;3.70;;;1.73;;